Flight Track Log - Related Links

Times and Time Zones

All times are in EDT time to prevent confusion due to time zone crossing. See the DAL1781 flight status page for this flight to view local times or setup timezone preferences in your user account.

Time Position Orientation Groundspeed Altitude Reporting Facility
EDT Latitude Longitude Course Direction KTS MPH feet Rate Location/Type
Mon 04:12:26 PM 44.8833 -93.2833 180° South 197 227 2,800  Level Minneapolis TRACON
Mon 04:13:32 PM 44.8667 -93.4000 259° West 273 314 5,600 2,450 Climbing Minneapolis TRACON
Mon 04:14:00 PM 44.6100 -92.9635 153° Southeast  Level Estimated
Mon 04:14:26 PM 44.8500 -93.4833 254° West 289 333 7,700  Level Minneapolis TRACON
Mon 04:15:00 PM 44.5191 -92.8779 157° South  Level Estimated
Mon 04:15:20 PM 44.8000 -93.5500 223° Southwest 293 337 10,500  Level Minneapolis TRACON
Mon 04:15:51 PM 44.7633 -93.5706 202° Southwest 307 353 11,900 2,258 Climbing Minneapolis Center
Mon 04:16:00 PM 44.4283 -92.7926 152° Southeast  Level Estimated
Mon 04:16:53 PM 44.6997 -93.4983 141° Southeast 305 351 14,000  Level Minneapolis Center
Mon 04:17:00 PM 44.3373 -92.7076 180° South  Level Estimated
Mon 04:17:55 PM 44.6294 -93.4094 138° Southeast 343 395 15,600  Level Minneapolis Center
Mon 04:18:57 PM 44.5356 -93.2864 137° Southeast 399 459 17,600 1,935 Climbing Minneapolis Center
Mon 04:19:59 PM 44.4536 -93.1778 137° Southeast 409 471 19,600 1,742 Climbing Minneapolis Center
Mon 04:21:01 PM 44.3664 -93.0642 137° Southeast 423 487 21,200 1,645 Climbing Minneapolis Center
Mon 04:22:03 PM 44.2758 -92.9472 137° Southeast 438 504 23,000 1,887 Climbing Minneapolis Center
Mon 04:23:05 PM 44.1639 -92.8572 150° Southeast 458 527 25,100 3,145 Climbing Minneapolis Center
Mon 04:24:07 PM 44.0333 -92.7700 154° Southeast 445 512 29,500 2,855 Climbing Minneapolis Center
Mon 04:25:09 PM 43.9350 -92.7019 154° Southeast 404 465 31,000 1,258 Climbing Minneapolis Center
Mon 04:26:11 PM 43.8339 -92.6317 153° Southeast 405 466 32,100 919 Climbing Minneapolis Center
Mon 04:27:13 PM 43.7172 -92.5842 164° South 434 499 32,900 768 Climbing Minneapolis Center
Mon 04:28:16 PM 43.5947 -92.5678 174° South 447 514 33,700 912 Climbing Minneapolis Center
Mon 04:29:18 PM 43.4714 -92.5467 173° South 449 517 34,800 1,113 Climbing Minneapolis Center
Mon 04:30:20 PM 43.3214 -92.5228 173° South 456 525 36,000 971 Climbing Minneapolis Center
Mon 04:31:34 PM 43.1706 -92.4986 173° South 459 528 37,000 441 Climbing Minneapolis Center
Mon 04:32:36 PM 43.0472 -92.4789 173° South 455 524 37,000  Level Minneapolis Center
Mon 04:33:38 PM 42.9231 -92.4575 173° South 455 524 37,000  Level Minneapolis Center
Mon 04:34:17 PM 42.8278 -92.4064 159° South 460 529 37,000  Level Chicago Center
Mon 04:35:19 PM 42.7208 -92.3178 149° Southeast 458 527 37,000  Level Chicago Center
Mon 04:36:21 PM 42.6133 -92.2250 148° Southeast 464 534 37,000  Level Chicago Center
Mon 04:37:23 PM 42.5056 -92.1411 150° Southeast 455 524 37,000  Level Chicago Center
Mon 04:38:25 PM 42.3744 -92.0392 150° Southeast 458 527 37,000  Level Chicago Center
Mon 04:39:27 PM 42.2664 -91.9550 150° Southeast 455 524 37,000  Level Chicago Center
Mon 04:40:29 PM 42.1594 -91.8714 150° Southeast 452 520 37,000  Level Chicago Center
Mon 04:41:31 PM 42.0519 -91.7869 150° Southeast 452 520 37,000  Level Chicago Center
Mon 04:42:33 PM 41.9242 -91.6906 151° Southeast 448 516 37,000  Level Chicago Center
Mon 04:43:35 PM 41.8194 -91.6106 150° Southeast 441 507 37,000  Level Chicago Center
Mon 04:44:37 PM 41.7133 -91.5297 150° Southeast 442 509 37,000  Level Chicago Center
Mon 04:45:39 PM 41.6081 -91.4494 150° Southeast 441 507 37,000  Level Chicago Center
Mon 04:46:42 PM 41.5025 -91.3694 150° Southeast 441 507 37,000  Level Chicago Center
Mon 04:47:44 PM 41.3892 -91.2836 150° Southeast 443 510 37,000  Level Chicago Center
Mon 04:48:46 PM 41.2611 -91.1872 150° Southeast 442 509 37,000  Level Chicago Center
Mon 04:49:48 PM 41.1539 -91.1081 151° Southeast 442 509 37,000  Level Chicago Center
Mon 04:50:50 PM 41.0472 -91.0292 151° Southeast 440 506 37,000  Level Chicago Center
Mon 04:51:52 PM 40.9397 -90.9492 151° Southeast 443 510 37,000  Level Chicago Center
Mon 04:52:54 PM 40.8328 -90.8703 151° Southeast 443 510 37,000  Level Chicago Center
Mon 04:53:56 PM 40.7269 -90.7922 151° Southeast 440 506 37,000  Level Chicago Center
Mon 04:54:58 PM 40.5994 -90.6989 151° Southeast 439 505 37,000  Level Chicago Center
Mon 04:56:00 PM 40.4931 -90.6211 151° Southeast 439 505 37,000  Level Chicago Center
Mon 04:57:02 PM 40.3867 -90.5442 151° Southeast 439 505 37,000  Level Chicago Center
Mon 04:58:00 PM 40.2814 -90.4675 151° Southeast 437 503 37,000  Level Kansas City Center
Mon 04:59:02 PM 40.1775 -90.3917 151° Southeast 433 498 37,000  Level Kansas City Center
Mon 05:00:04 PM 40.0725 -90.3164 151° Southeast 433 498 37,000  Level Kansas City Center
Mon 05:01:06 PM 39.9678 -90.2397 151° Southeast 432 497 37,000  Level Kansas City Center
Mon 05:03:10 PM 39.7367 -90.0750 151° Southeast 431 496 37,000 32 Level Kansas City Center
Mon 05:04:12 PM 39.6356 -90.0036 151° Southeast 429 494 37,100 240 Climbing Kansas City Center
Mon 05:05:15 PM 39.5311 -89.9283 151° Southeast 428 493 37,500 432 Climbing Kansas City Center
Mon 05:06:17 PM 39.4219 -89.8511 151° Southeast 439 505 38,000 581 Climbing Kansas City Center
Mon 05:07:19 PM 39.2872 -89.7569 152° Southeast 451 519 38,700 484 Climbing Kansas City Center
Mon 05:08:21 PM 39.1728 -89.6764 151° Southeast 451 519 39,000 145 Climbing Kansas City Center
Mon 05:09:23 PM 39.0636 -89.6011 152° Southeast 446 513 39,000  Level Kansas City Center
Mon 05:10:25 PM 38.9442 -89.5181 152° Southeast 452 520 39,000  Level Kansas City Center
Mon 05:11:27 PM 38.8328 -89.4408 152° Southeast 454 522 39,000  Level Kansas City Center
Mon 05:12:29 PM 38.7214 -89.3644 152° Southeast 454 522 39,000  Level Kansas City Center
Mon 05:13:31 PM 38.6017 -89.2828 152° Southeast 452 520 39,000  Level Kansas City Center
Mon 05:15:00 PM 38.4796 -89.1531 140° Southeast  Level Estimated
Mon 05:15:35 PM 38.4006 -89.0719 140° Southeast 450 518 39,000  Level Kansas City Center
Mon 05:16:37 PM 38.3100 -88.9758 140° Southeast 450 518 39,000  Level Kansas City Center
Mon 05:17:39 PM 38.2136 -88.8725 140° Southeast 453 521 39,000  Level Kansas City Center
Mon 05:18:41 PM 38.1189 -88.7694 139° Southeast 450 518 39,000  Level Kansas City Center
Mon 05:19:43 PM 38.0247 -88.6644 139° Southeast 439 505 39,000  Level Kansas City Center
Mon 05:20:45 PM 37.9319 -88.5628 139° Southeast 438 504 39,000  Level Kansas City Center
Mon 05:21:47 PM 37.8186 -88.4411 140° Southeast 442 509 39,000  Level Kansas City Center
Mon 05:22:49 PM 37.7242 -88.3392 139° Southeast 445 512 39,000  Level Kansas City Center
Mon 05:23:51 PM 37.6294 -88.2375 140° Southeast 445 512 39,000  Level Kansas City Center
Mon 05:24:26 PM 37.5817 -88.1850 139° Southeast 440 506 39,000  Level Memphis Center
Mon 05:25:26 PM 37.4797 -88.0781 140° Southeast 440 506 39,000  Level Memphis Center
Mon 05:26:26 PM 37.3842 -87.9792 141° Southeast 440 506 39,000  Level Memphis Center
Mon 05:27:26 PM 37.2903 -87.8775 139° Southeast 440 506 39,000  Level Memphis Center
Mon 05:28:26 PM 37.1925 -87.7764 141° Southeast 453 521 39,000  Level Memphis Center
Mon 05:29:26 PM 37.0989 -87.6808 141° Southeast 453 521 39,000  Level Memphis Center
Mon 05:30:26 PM 37.0050 -87.5825 140° Southeast 447 514 39,000  Level Memphis Center
Mon 05:31:26 PM 36.9089 -87.4794 139° Southeast 447 514 39,000  Level Memphis Center
Mon 05:32:26 PM 36.8128 -87.3794 140° Southeast 447 514 39,000  Level Memphis Center
Mon 05:33:26 PM 36.7186 -87.2819 140° Southeast 447 514 39,000  Level Memphis Center
Mon 05:34:26 PM 36.6331 -87.1947 141° Southeast 447 514 39,000  Level Memphis Center
Mon 05:35:26 PM 36.5389 -87.0950 140° Southeast 447 514 39,000  Level Memphis Center
Mon 05:36:26 PM 36.4467 -87.0006 141° Southeast 439 505 39,000  Level Memphis Center
Mon 05:37:26 PM 36.3353 -86.8919 142° Southeast 449 517 39,000  Level Memphis Center
Mon 05:38:26 PM 36.2450 -86.7981 140° Southeast 444 511 39,000  Level Memphis Center
Mon 05:39:26 PM 36.1525 -86.7017 140° Southeast 434 499 39,000 -100 Level Memphis Center
Mon 05:40:26 PM 36.0606 -86.6236 146° Southeast 414 476 38,800 -850 Descending Memphis Center
Mon 05:41:26 PM 35.9572 -86.5822 162° South 385 443 37,300 -1,550 Descending Memphis Center
Mon 05:42:26 PM 35.8575 -86.5944 186° South 385 443 35,700 -1,300 Descending Memphis Center
Mon 05:43:26 PM 35.7433 -86.6075 185° South 410 472 34,700 -1,025 Descending Memphis Center
Mon 05:45:04 PM 35.5472 -86.6167 182° South 421 484 33,000 -468 Descending Atlanta Center
Mon 05:47:04 PM 35.3531 -86.4247 141° Southeast 441 507 33,000  Level Atlanta Center
Mon 05:48:04 PM 35.2592 -86.3153 136° Southeast 461 531 33,000  Level Atlanta Center
Mon 05:49:04 PM 35.1856 -86.2319 137° Southeast 458 527 33,000  Level Atlanta Center
Mon 05:50:04 PM 35.0728 -86.1122 139° Southeast 458 527 33,000 -650 Level Atlanta Center
Mon 05:51:04 PM 34.9742 -86.0186 142° Southeast 453 521 31,700 -1,400 Descending Atlanta Center
Mon 05:52:04 PM 34.8744 -86.0008 172° South 412 474 30,200 -850 Descending Atlanta Center
Mon 05:53:04 PM 34.7550 -86.0233 189° South 402 463 30,000 -700 Descending Atlanta Center
Mon 05:54:04 PM 34.6361 -86.0206 179° South 414 476 28,800 -1,300 Descending Atlanta Center
Mon 05:55:04 PM 34.5439 -85.9100 135° Southeast 415 478 27,400 -1,350 Descending Atlanta Center
Mon 05:56:04 PM 34.4689 -85.7522 120° Southeast 438 504 26,100 -1,450 Descending Atlanta Center
Mon 05:57:04 PM 34.4000 -85.6072 120° Southeast 468 539 24,500 -1,900 Descending Atlanta Center
Mon 05:59:04 PM 34.2819 -85.3586 120° Southeast 455 524 20,400 -2,067 Descending Atlanta Center
Mon 06:00:04 PM 34.2206 -85.2347 121° Southeast 433 498 18,300 -2,050 Descending Atlanta Center
Mon 06:01:04 PM 34.1631 -85.1258 123° Southeast 403 464 16,300 -2,050 Descending Atlanta Center
Mon 06:02:04 PM 34.0950 -85.0297 131° Southeast 381 438 14,200 -1,200 Descending Atlanta Center
Mon 06:03:04 PM 34.0206 -84.9361 134° Southeast 376 433 13,900 -700 Descending Atlanta Center
Mon 06:04:04 PM 33.9481 -84.8453 134° Southeast 376 433 12,800 -857 Descending Atlanta Center
Mon 06:05:17 PM 33.8500 -84.7167 133° Southeast 370 426 12,000 -361 Descending Atlanta TRACON
Mon 06:06:17 PM 33.7833 -84.6333 134° Southeast 324 373 12,000 -100 Level Atlanta TRACON
Mon 06:07:17 PM 33.7333 -84.5667 132° Southeast 266 306 11,800 -1,050 Descending Atlanta TRACON
Mon 06:08:17 PM 33.7333 -84.4833 90° East 267 307 9,900 -1,850 Descending Atlanta TRACON
Mon 06:09:17 PM 33.7333 -84.4000 90° East 258 297 8,100 -1,850 Descending Atlanta TRACON
Mon 06:10:17 PM 33.7333 -84.3167 90° East 248 285 6,200 -1,600 Descending Atlanta TRACON
Mon 06:11:17 PM 33.7167 -84.2500 107° East 225 259 4,900 -1,300 Descending Atlanta TRACON

Login

Don't have an account? Register now (free) for customized features, flight alerts, and more!